Time;durP1;ratioP1;P1;durP2;ratioP2;P2;SDS_P1;SDS_P2;PMS_P1;PMS_P2;Temp;Humidity;BMP_temperature;BMP_pressure;BME280_temperature;BME280_humidity;BME280_pressure;Samples;Min_cycle;Max_cycle;Signal;HPM_P1;HPM_P2
2021/04/04 00:01:11;;;;;;;9.60;2.00;;;6.90;92.60;;;;;;5047634;28;20167;-83
2021/04/04 00:03:36;;;;;;;7.50;2.20;;;6.90;92.70;;;;;;5046407;28;20030;-83
2021/04/04 00:06:02;;;;;;;11.43;2.45;;;6.90;92.70;;;;;;5028757;28;20030;-83
2021/04/04 00:08:28;;;;;;;14.10;2.22;;;6.80;92.70;;;;;;5046791;28;20067;-82
2021/04/04 00:10:54;;;;;;;9.48;2.58;;;6.90;92.70;;;;;;5046331;28;20429;-83
2021/04/04 00:13:20;;;;;;;9.27;2.10;;;6.80;92.70;;;;;;5186487;22;20032;-83
2021/04/04 00:15:45;;;;;;;9.52;2.30;;;6.80;92.80;;;;;;5025947;28;20419;-82
2021/04/04 00:18:11;;;;;;;12.18;2.80;;;6.80;92.80;;;;;;5026832;28;20022;-83
2021/04/04 00:20:37;;;;;;;11.38;1.90;;;6.80;92.70;;;;;;5139668;23;20011;-83
2021/04/04 00:23:03;;;;;;;10.05;2.72;;;6.80;92.80;;;;;;5046252;28;20072;-84
2021/04/04 00:25:30;;;;;;;8.55;2.03;;;6.80;92.80;;;;;;5044405;28;20029;-83
2021/04/04 00:27:55;;;;;;;9.00;2.35;;;6.80;92.80;;;;;;5044467;28;20047;-83
2021/04/04 00:30:21;;;;;;;8.45;2.40;;;6.80;92.90;;;;;;5042746;28;20459;-84
2021/04/04 00:32:49;;;;;;;9.40;2.05;;;6.80;92.90;;;;;;5047381;28;20161;-83
2021/04/04 00:35:22;;;;;;;6.47;1.90;;;6.80;92.80;;;;;;5097839;23;20073;-83
2021/04/04 00:37:52;;;;;;;8.57;2.30;;;6.80;92.90;;;;;;5025951;28;20087;-84
2021/04/04 00:40:21;;;;;;;8.48;2.40;;;6.80;93.00;;;;;;5026791;28;20029;-83
2021/04/04 00:42:47;;;;;;;10.73;2.00;;;6.80;93.00;;;;;;5025287;28;20038;-84
2021/04/04 00:45:17;;;;;;;8.15;2.80;;;6.80;93.00;;;;;;5026794;28;20033;-83
2021/04/04 00:47:43;;;;;;;9.45;2.00;;;6.80;93.00;;;;;;5025829;28;20472;-83
2021/04/04 00:50:09;;;;;;;13.18;2.15;;;6.80;93.00;;;;;;5024227;28;20022;-86
2021/04/04 00:52:36;;;;;;;7.38;1.85;;;6.80;93.30;;;;;;5331463;22;20057;-83
2021/04/04 00:55:03;;;;;;;9.63;2.35;;;6.80;93.00;;;;;;5027323;28;20038;-84
2021/04/04 00:57:29;;;;;;;7.75;1.95;;;6.80;93.20;;;;;;5026203;28;20156;-83
2021/04/04 00:59:55;;;;;;;6.00;1.40;;;6.80;93.20;;;;;;5026477;28;20045;-83
2021/04/04 01:02:21;;;;;;;6.78;1.58;;;6.80;93.20;;;;;;5026484;28;20076;-83
2021/04/04 01:04:48;;;;;;;9.68;2.10;;;6.80;93.20;;;;;;5023355;28;20049;-83
2021/04/04 01:07:14;;;;;;;10.25;2.60;;;6.80;93.20;;;;;;5013736;28;20046;-82
2021/04/04 01:09:40;;;;;;;10.15;2.17;;;6.70;93.20;;;;;;5019238;28;20052;-82
2021/04/04 01:12:31;;;;;;;8.30;1.88;;;6.70;93.30;;;;;;5012692;28;20022;-83
2021/04/04 01:15:05;;;;;;;8.30;2.00;;;6.70;93.30;;;;;;5009179;28;20037;-83
2021/04/04 01:17:32;;;;;;;8.45;1.92;;;6.70;93.40;;;;;;5014706;28;20028;-89
2021/04/04 01:20:10;;;;;;;12.30;2.35;;;6.70;93.40;;;;;;5000589;28;20018;-89
2021/04/04 01:22:55;;;;;;;8.40;1.80;;;6.70;93.40;;;;;;5006664;28;20034;-88
2021/04/04 01:25:39;;;;;;;8.70;2.20;;;6.70;93.40;;;;;;5009882;28;20022;-90
2021/04/04 01:28:22;;;;;;;8.07;2.38;;;6.70;93.40;;;;;;5019935;28;20388;-83
2021/04/04 01:30:50;;;;;;;7.47;2.20;;;6.70;93.50;;;;;;5015140;28;20018;-84
2021/04/04 01:33:18;;;;;;;7.15;2.05;;;6.70;93.50;;;;;;5012298;28;20018;-84
2021/04/04 01:35:48;;;;;;;10.35;2.20;;;6.70;93.50;;;;;;5022719;28;20034;-84
2021/04/04 01:38:17;;;;;;;7.00;1.73;;;6.70;93.60;;;;;;5025851;28;20026;-83
2021/04/04 01:40:50;;;;;;;7.93;1.83;;;6.70;93.70;;;;;;5018739;28;20022;-86
2021/04/04 01:43:16;;;;;;;7.78;2.17;;;6.70;93.70;;;;;;5017542;28;20022;-83
2021/04/04 01:45:43;;;;;;;9.63;1.83;;;6.70;93.70;;;;;;5015126;28;20021;-82
2021/04/04 01:48:12;;;;;;;5.68;2.15;;;6.70;93.70;;;;;;5007394;28;20173;-86
2021/04/04 01:50:40;;;;;;;11.13;1.85;;;6.70;93.70;;;;;;5004677;28;20040;-83
2021/04/04 01:53:07;;;;;;;7.03;2.35;;;6.60;93.70;;;;;;5018114;28;20081;-82
2021/04/04 01:55:32;;;;;;;7.07;1.50;;;6.70;93.80;;;;;;5004012;28;20034;-85
2021/04/04 01:58:00;;;;;;;7.07;1.42;;;6.70;93.70;;;;;;5016081;28;20049;-82
2021/04/04 02:00:28;;;;;;;8.88;1.40;;;6.70;93.70;;;;;;5024938;28;20044;-83
2021/04/04 02:02:54;;;;;;;10.07;1.92;;;6.70;93.70;;;;;;5055744;22;20106;-84
2021/04/04 02:05:20;;;;;;;10.82;1.77;;;6.70;93.80;;;;;;5043826;28;20048;-83
2021/04/04 02:07:50;;;;;;;8.27;2.08;;;6.70;93.70;;;;;;5044030;28;20108;-83
2021/04/04 02:10:19;;;;;;;9.15;2.08;;;6.70;93.80;;;;;;5045183;28;20029;-84
2021/04/04 02:12:45;;;;;;;8.35;2.28;;;6.70;93.80;;;;;;5027015;28;20014;-86
2021/04/04 02:15:14;;;;;;;6.53;1.77;;;6.70;93.80;;;;;;5043654;28;20533;-84
2021/04/04 02:17:42;;;;;;;7.93;1.80;;;6.70;93.80;;;;;;5042448;28;20025;-83
2021/04/04 02:20:13;;;;;;;6.47;1.38;;;6.70;93.80;;;;;;5042897;28;20017;-86
2021/04/04 02:22:40;;;;;;;6.07;1.58;;;6.70;93.90;;;;;;5037609;28;20101;-83
2021/04/04 02:25:08;;;;;;;8.75;1.80;;;6.70;93.90;;;;;;5037994;28;20017;-86
2021/04/04 02:27:33;;;;;;;9.13;1.70;;;6.70;94.10;;;;;;5038359;28;20541;-84
2021/04/04 02:29:59;;;;;;;10.40;1.63;;;6.70;93.90;;;;;;5043100;28;20018;-83
2021/04/04 02:32:27;;;;;;;6.22;1.52;;;6.70;93.90;;;;;;5044488;28;20022;-84
2021/04/04 02:34:57;;;;;;;7.05;1.88;;;6.70;94.00;;;;;;5043413;28;20029;-84
2021/04/04 02:37:23;;;;;;;6.57;1.50;;;6.70;94.00;;;;;;5044102;28;20029;-83
2021/04/04 02:39:53;;;;;;;5.07;1.20;;;6.70;94.00;;;;;;5040751;28;20021;-88
2021/04/04 02:42:23;;;;;;;7.30;1.75;;;6.70;94.10;;;;;;5038086;28;20013;-87
2021/04/04 02:44:52;;;;;;;4.38;1.23;;;6.80;94.10;;;;;;5040493;28;20024;-88
2021/04/04 02:47:22;;;;;;;6.20;1.23;;;6.70;94.10;;;;;;5036131;28;20025;-87
2021/04/04 02:49:51;;;;;;;6.65;1.73;;;6.70;94.10;;;;;;5034490;28;20026;-86
2021/04/04 02:52:20;;;;;;;3.83;1.50;;;6.70;94.20;;;;;;5034577;28;20029;-90
2021/04/04 02:54:51;;;;;;;6.03;1.65;;;6.70;94.20;;;;;;5033838;28;20072;-88
2021/04/04 02:57:18;;;;;;;5.63;1.48;;;6.70;94.30;;;;;;5033036;28;20048;-89
2021/04/04 02:59:50;;;;;;;4.95;1.33;;;6.70;94.30;;;;;;5032782;28;20022;-88
2021/04/04 03:02:18;;;;;;;6.82;1.60;;;6.70;94.40;;;;;;5032745;28;20090;-84
2021/04/04 03:04:48;;;;;;;7.07;1.77;;;6.70;94.50;;;;;;5035459;28;20022;-89
2021/04/04 03:07:19;;;;;;;6.10;1.80;;;6.60;94.60;;;;;;5033041;28;20104;-87
2021/04/04 03:09:49;;;;;;;6.25;1.48;;;6.60;94.60;;;;;;5033428;28;20049;-89
2021/04/04 03:12:16;;;;;;;6.65;1.48;;;6.60;94.70;;;;;;5033283;28;20028;-88
2021/04/04 03:14:44;;;;;;;4.95;1.83;;;6.60;94.70;;;;;;5032329;28;20036;-89
2021/04/04 03:17:10;;;;;;;7.68;1.52;;;6.60;94.70;;;;;;5034306;28;20018;-90
2021/04/04 03:19:40;;;;;;;8.93;1.60;;;6.70;94.80;;;;;;5035624;28;20450;-88
2021/04/04 03:22:07;;;;;;;6.40;1.40;;;6.60;94.70;;;;;;5035614;28;20056;-87
2021/04/04 03:24:34;;;;;;;11.15;2.22;;;6.60;94.70;;;;;;5036956;28;20491;-89
2021/04/04 03:27:01;;;;;;;7.53;1.75;;;6.60;94.80;;;;;;5037581;28;20102;-89
2021/04/04 03:29:28;;;;;;;7.70;2.05;;;6.60;94.80;;;;;;5042597;28;20022;-84
2021/04/04 03:31:54;;;;;;;8.13;1.85;;;6.60;94.80;;;;;;5048695;28;20479;-86
2021/04/04 03:36:51;;;;;;;9.88;1.55;;;6.60;94.80;;;;;;5026663;28;20049;-85
2021/04/04 03:39:17;;;;;;;7.18;1.17;;;6.60;94.90;;;;;;5021226;28;20040;-89
2021/04/04 03:41:44;;;;;;;3.90;1.45;;;6.60;94.90;;;;;;5031928;28;20049;-87
2021/04/04 03:44:11;;;;;;;11.73;1.60;;;6.60;94.90;;;;;;5031838;28;20375;-88
2021/04/04 03:46:38;;;;;;;7.40;1.85;;;6.70;94.90;;;;;;5017397;28;20096;-89
2021/04/04 03:49:06;;;;;;;5.57;1.83;;;6.60;94.90;;;;;;5032586;28;20030;-88
2021/04/04 03:51:32;;;;;;;5.72;1.30;;;6.60;94.90;;;;;;5020569;28;20022;-87
2021/04/04 03:53:58;;;;;;;7.55;1.55;;;6.60;94.90;;;;;;5023840;28;20025;-85
2021/04/04 03:56:31;;;;;;;7.60;1.58;;;6.60;95.00;;;;;;5021493;28;20021;-86
2021/04/04 03:59:02;;;;;;;7.57;1.40;;;6.60;95.00;;;;;;5034439;28;20381;-87
2021/04/04 04:01:30;;;;;;;5.85;1.42;;;6.60;95.00;;;;;;5026089;28;20030;-85
2021/04/04 04:03:57;;;;;;;5.53;1.45;;;6.50;95.00;;;;;;5027017;28;20030;-84
2021/04/04 04:06:23;;;;;;;8.07;1.15;;;6.50;95.10;;;;;;5027772;28;20053;-82
2021/04/04 04:08:50;;;;;;;7.55;1.42;;;6.50;95.10;;;;;;5043140;28;20037;-83
2021/04/04 04:11:16;;;;;;;6.90;1.73;;;6.50;95.10;;;;;;5036641;28;20026;-89
2021/04/04 04:13:43;;;;;;;5.38;1.30;;;6.50;95.20;;;;;;5036347;28;20029;-84
2021/04/04 04:16:10;;;;;;;7.00;1.77;;;6.50;95.20;;;;;;5056612;22;20054;-88
2021/04/04 04:18:42;;;;;;;4.45;1.13;;;6.50;95.20;;;;;;5021016;28;20100;-89
2021/04/04 04:21:10;;;;;;;5.28;1.33;;;6.50;95.20;;;;;;5026907;28;20032;-84
2021/04/04 04:23:38;;;;;;;4.53;1.33;;;6.50;95.20;;;;;;5025140;28;20033;-84
2021/04/04 04:26:04;;;;;;;5.47;1.15;;;6.50;95.20;;;;;;5025517;28;20045;-83
2021/04/04 04:28:31;;;;;;;7.18;1.38;;;6.50;95.20;;;;;;5025454;28;20030;-83
2021/04/04 04:30:56;;;;;;;5.28;1.25;;;6.50;95.20;;;;;;5027656;28;20025;-84
2021/04/04 04:33:23;;;;;;;7.15;1.77;;;6.50;95.30;;;;;;5026540;28;20029;-84
2021/04/04 04:35:50;;;;;;;4.10;1.05;;;6.50;95.30;;;;;;5026029;28;20034;-83
2021/04/04 04:38:18;;;;;;;9.82;1.50;;;6.50;95.30;;;;;;5059880;22;20096;-83
2021/04/04 04:40:45;;;;;;;5.70;1.10;;;6.50;95.30;;;;;;5027558;28;20104;-83
2021/04/04 04:43:16;;;;;;;6.07;1.30;;;6.50;95.30;;;;;;5044056;22;20061;-83
2021/04/04 04:45:42;;;;;;;5.80;1.00;;;6.50;95.30;;;;;;5046635;28;20025;-83
2021/04/04 04:48:09;;;;;;;3.63;0.90;;;6.50;95.30;;;;;;5045319;28;20028;-86
2021/04/04 04:50:35;;;;;;;7.80;1.27;;;6.50;95.30;;;;;;5044236;28;20025;-85
2021/04/04 04:53:02;;;;;;;2.75;0.80;;;6.50;95.30;;;;;;5041241;28;20029;-88
2021/04/04 04:55:28;;;;;;;4.78;1.05;;;6.50;95.40;;;;;;5040005;28;20053;-89
2021/04/04 04:57:57;;;;;;;6.15;1.10;;;6.50;95.40;;;;;;5037181;28;20108;-87
2021/04/04 05:00:24;;;;;;;3.72;1.08;;;6.50;95.40;;;;;;5044303;28;20033;-83
2021/04/04 05:02:51;;;;;;;5.65;1.13;;;6.50;95.40;;;;;;5057890;22;20057;-83
2021/04/04 05:08:20;;;;;;;6.53;1.15;;;6.50;95.50;;;;;;5032305;22;20050;-83
2021/04/04 05:10:47;;;;;;;5.80;1.20;;;6.50;95.50;;;;;;5020924;28;20025;-87
2021/04/04 05:13:13;;;;;;;4.65;0.80;;;6.50;95.60;;;;;;5023526;28;20025;-87
2021/04/04 05:15:41;;;;;;;8.07;1.08;;;6.50;95.60;;;;;;5024667;28;20030;-83
2021/04/04 05:18:07;;;;;;;5.63;1.10;;;6.50;95.60;;;;;;5021570;28;20105;-85
2021/04/04 05:23:18;;;;;;;5.55;0.90;;;6.50;95.70;;;;;;5032164;22;20097;-83
2021/04/04 05:25:44;;;;;;;7.18;0.98;;;6.50;95.70;;;;;;5024257;28;20037;-84
2021/04/04 05:28:10;;;;;;;6.60;1.05;;;6.50;95.70;;;;;;5025829;28;20022;-83
2021/04/04 05:30:35;;;;;;;8.30;1.33;;;6.50;95.70;;;;;;5025746;28;20045;-83
2021/04/04 05:33:04;;;;;;;6.25;1.10;;;6.50;95.70;;;;;;5026159;28;20018;-83
2021/04/04 05:35:35;;;;;;;5.38;1.27;;;6.50;95.80;;;;;;5027172;28;20065;-82
2021/04/04 05:38:01;;;;;;;6.50;1.00;;;6.50;95.80;;;;;;5025875;28;20112;-84
2021/04/04 05:40:29;;;;;;;6.78;1.15;;;6.50;95.80;;;;;;5022783;28;20407;-84
2021/04/04 05:43:01;;;;;;;6.55;1.42;;;6.50;95.80;;;;;;5024872;28;20026;-84
2021/04/04 05:45:32;;;;;;;7.55;1.55;;;6.50;95.90;;;;;;5024669;28;20046;-85
2021/04/04 05:48:35;;;;;;;7.72;1.10;;;6.50;95.90;;;;;;5058543;23;20079;-88
2021/04/04 05:51:23;;;;;;;6.20;1.25;;;6.50;95.90;;;;;;5061344;28;20092;-86
2021/04/04 05:54:16;;;;;;;3.58;0.80;;;6.50;95.90;;;;;;5084916;28;20025;-83
2021/04/04 05:56:49;;;;;;;6.45;1.05;;;6.50;95.90;;;;;;5079790;28;20089;-87
2021/04/04 05:59:21;;;;;;;;;;;6.50;95.90;;;;;;5063856;28;20039;-84
2021/04/04 06:01:58;;;;;;;6.50;1.00;;;6.50;95.90;;;;;;5068064;28;19904;-84
2021/04/04 06:04:38;;;;;;;4.68;1.10;;;6.50;96.00;;;;;;5067867;28;20021;-83
2021/04/04 06:07:07;;;;;;;4.25;0.98;;;6.60;96.00;;;;;;5085324;28;20490;-84
2021/04/04 06:09:51;;;;;;;5.22;0.80;;;6.60;96.00;;;;;;5153006;22;20056;-83
2021/04/04 06:12:43;;;;;;;3.45;1.00;;;6.60;96.00;;;;;;5068105;28;20044;-84
2021/04/04 06:15:46;;;;;;;4.95;0.88;;;6.60;96.00;;;;;;5086058;28;20033;-83
2021/04/04 06:18:36;;;;;;;5.03;1.13;;;6.60;95.90;;;;;;5068195;28;20028;-83
2021/04/04 06:21:21;;;;;;;5.13;1.35;;;6.70;95.90;;;;;;5067951;28;20048;-83
2021/04/04 06:24:12;;;;;;;3.65;0.80;;;6.70;96.00;;;;;;5067420;28;20020;-86
2021/04/04 06:26:59;;;;;;;5.35;0.95;;;6.70;96.00;;;;;;5083814;28;20032;-83
2021/04/04 06:29:36;;;;;;;3.35;1.08;;;6.70;96.00;;;;;;5059299;28;20021;-87
2021/04/04 06:32:05;;;;;;;5.07;1.13;;;6.70;96.00;;;;;;5085563;28;20058;-83
2021/04/04 06:34:50;;;;;;;4.88;1.33;;;6.70;96.00;;;;;;5067561;28;20085;-83
2021/04/04 06:38:01;;;;;;;6.35;1.83;;;6.70;96.00;;;;;;5067857;28;20051;-83
2021/04/04 06:40:58;;;;;;;5.15;1.00;;;6.70;96.00;;;;;;5050980;28;20047;-82
2021/04/04 06:43:40;;;;;;;6.28;1.17;;;6.80;96.00;;;;;;5033240;28;20029;-83
2021/04/04 06:46:26;;;;;;;5.93;1.08;;;6.80;96.00;;;;;;5067550;28;20020;-84
2021/04/04 06:49:23;;;;;;;8.20;1.30;;;6.80;96.00;;;;;;5067384;28;20102;-84
2021/04/04 06:52:02;;;;;;;5.35;1.08;;;6.80;95.90;;;;;;5070359;28;20035;-82
2021/04/04 06:54:49;;;;;;;5.55;1.10;;;6.80;96.10;;;;;;5070357;28;20066;-86
2021/04/04 06:57:39;;;;;;;5.25;1.15;;;6.80;96.10;;;;;;5083207;28;20409;-87
2021/04/04 07:00:09;;;;;;;4.30;1.00;;;6.90;96.00;;;;;;5059690;28;20047;-85
2021/04/04 07:03:06;;;;;;;5.13;1.02;;;7.00;96.10;;;;;;5078041;28;20043;-89
2021/04/04 07:05:39;;;;;;;6.22;1.00;;;7.00;96.20;;;;;;5057239;28;20078;-87
2021/04/04 07:08:24;;;;;;;;;;;7.00;96.20;;;;;;5058218;28;20821;-88
2021/04/04 07:10:54;;;;;;;;;;;7.00;96.10;;;;;;5079767;28;19920;-88
2021/04/04 07:13:30;;;;;;;4.57;0.90;;;7.00;96.10;;;;;;5086392;28;20124;-88
2021/04/04 07:16:21;;;;;;;5.63;1.30;;;7.10;96.00;;;;;;5075822;28;20062;-87
2021/04/04 07:19:01;;;;;;;5.03;1.25;;;7.10;95.90;;;;;;5091899;28;20028;-87
2021/04/04 07:21:47;;;;;;;4.60;1.00;;;7.20;95.90;;;;;;5074520;28;20036;-87
2021/04/04 07:24:50;;;;;;;4.68;1.20;;;7.20;95.90;;;;;;5066954;28;20373;-89
2021/04/04 07:27:47;;;;;;;5.68;0.93;;;7.20;95.80;;;;;;5085001;28;20024;-82
2021/04/04 07:30:39;;;;;;;3.92;1.10;;;7.30;95.90;;;;;;5088346;28;20024;-88
2021/04/04 07:38:23;;;;;;;4.35;1.30;;;7.40;95.90;;;;;;5143657;22;20634;-88
2021/04/04 07:41:21;;;;;;;5.55;1.77;;;7.40;95.90;;;;;;5118206;28;20012;-89
2021/04/04 07:44:22;;;;;;;5.60;1.90;;;7.40;95.90;;;;;;5100383;28;20058;-92
2021/04/04 07:47:02;;;;;;;7.13;1.77;;;7.50;96.00;;;;;;5100525;28;20157;-88
2021/04/04 07:49:42;;;;;;;6.28;1.83;;;7.50;96.00;;;;;;5099026;28;20022;-87
2021/04/04 07:52:45;;;;;;;5.93;1.30;;;7.50;96.00;;;;;;5116140;28;20031;-87
2021/04/04 07:55:21;;;;;;;5.70;1.50;;;7.60;96.00;;;;;;5067167;28;20036;-89
2021/04/04 07:58:16;;;;;;;6.22;1.48;;;7.70;96.00;;;;;;5093950;28;20019;-88
2021/04/04 08:00:58;;;;;;;5.88;1.40;;;7.60;96.20;;;;;;5095311;28;20047;-88
2021/04/04 08:03:46;;;;;;;7.38;1.35;;;7.70;96.60;;;;;;5096656;28;20031;-90
2021/04/04 08:06:14;;;;;;;4.93;1.60;;;7.60;96.50;;;;;;5094273;28;20038;-90
2021/04/04 08:08:46;;;;;;;6.50;1.60;;;7.60;96.40;;;;;;5097233;28;20425;-89
2021/04/04 08:11:27;;;;;;;5.30;1.33;;;7.60;96.40;;;;;;5097622;28;20103;-88
2021/04/04 08:14:13;;;;;;;6.63;1.33;;;7.70;96.30;;;;;;5098651;28;20019;-89
2021/04/04 08:16:51;;;;;;;8.32;1.75;;;7.70;96.30;;;;;;5098074;28;20028;-89
2021/04/04 08:19:17;;;;;;;5.90;1.40;;;7.70;96.40;;;;;;5098321;28;20047;-90
2021/04/04 08:21:49;;;;;;;4.78;2.00;;;7.60;96.40;;;;;;5096949;28;20063;-90
2021/04/04 08:24:27;;;;;;;8.50;1.90;;;7.60;96.50;;;;;;5096954;28;20092;-91
2021/04/04 08:26:58;;;;;;;5.47;1.80;;;7.60;96.50;;;;;;5096582;28;20059;-90
2021/04/04 08:29:35;;;;;;;5.93;1.75;;;7.60;96.50;;;;;;5096391;28;20393;-89
2021/04/04 08:32:07;;;;;;;8.07;1.83;;;7.50;96.50;;;;;;5092340;28;20047;-90
2021/04/04 08:34:56;;;;;;;6.00;1.80;;;7.50;96.50;;;;;;5096506;28;20076;-90
2021/04/04 08:37:37;;;;;;;6.97;2.25;;;7.50;96.60;;;;;;5112730;28;20047;-90
2021/04/04 08:40:10;;;;;;;7.95;2.03;;;7.60;96.50;;;;;;5089435;28;20026;-90
2021/04/04 08:42:36;;;;;;;;;;;7.50;96.60;;;;;;5096989;28;20019;-92
2021/04/04 08:45:10;;;;;;;4.57;2.03;;;7.50;96.70;;;;;;5096631;28;19991;-91
2021/04/04 08:47:38;;;;;;;6.15;2.17;;;7.40;96.70;;;;;;5078455;28;20035;-91
2021/04/04 08:50:11;;;;;;;6.25;2.05;;;7.40;97.20;;;;;;5096431;28;20020;-90
2021/04/04 08:52:49;;;;;;;;;;;7.40;97.00;;;;;;5097679;28;20393;-91
2021/04/04 08:55:27;;;;;;;6.72;2.15;;;7.40;97.10;;;;;;5091734;28;19912;-91
2021/04/04 08:57:55;;;;;;;5.97;2.30;;;7.40;97.10;;;;;;5114889;28;20015;-91
2021/04/04 09:00:23;;;;;;;4.38;1.98;;;7.40;97.10;;;;;;5114256;28;20065;-90
2021/04/04 09:03:11;;;;;;;6.32;2.70;;;7.40;97.20;;;;;;5096899;28;20024;-92
2021/04/04 09:05:50;;;;;;;;;;;;;;;;;;;;;
2021/04/04 09:08:42;;;;;;;;;;;;;;;;;;;;;
2021/04/04 09:11:13;;;;;;;8.07;2.58;;;7.40;97.10;;;;;;5115957;28;20035;-91
2021/04/04 09:13:46;;;;;;;4.28;2.30;;;7.40;97.10;;;;;;5115407;28;20026;-93
2021/04/04 09:16:18;;;;;;;;;;;7.40;97.10;;;;;;5097765;28;20057;-91
2021/04/04 09:18:50;;;;;;;6.07;2.05;;;7.50;97.20;;;;;;5097320;28;19911;-93
2021/04/04 09:21:20;;;;;;;5.20;2.40;;;7.50;97.10;;;;;;5090378;28;20043;-92
2021/04/04 09:23:47;;;;;;;5.32;2.60;;;7.60;97.10;;;;;;5096300;28;20077;-91
2021/04/04 09:26:18;;;;;;;5.30;2.42;;;7.70;97.10;;;;;;5096751;28;20016;-91
2021/04/04 09:28:44;;;;;;;4.97;2.30;;;7.70;97.00;;;;;;5091793;28;20026;-90
2021/04/04 09:31:19;;;;;;;4.82;2.40;;;7.80;96.90;;;;;;5095024;28;20019;-90
2021/04/04 09:34:02;;;;;;;5.93;2.65;;;7.80;96.90;;;;;;5094951;28;20030;-89
2021/04/04 09:36:51;;;;;;;9.05;2.75;;;7.80;96.70;;;;;;5092034;28;20044;-90
2021/04/04 09:39:27;;;;;;;3.95;2.22;;;7.80;96.70;;;;;;5092818;28;20016;-89
2021/04/04 09:41:59;;;;;;;4.63;2.03;;;7.80;96.60;;;;;;5075195;28;20020;-90
2021/04/04 09:44:35;;;;;;;5.53;2.55;;;7.80;96.50;;;;;;5076642;28;20027;-91
2021/04/04 09:47:04;;;;;;;5.18;2.60;;;7.80;96.70;;;;;;5076327;28;20040;-88
2021/04/04 09:49:51;;;;;;;6.10;2.85;;;7.80;96.50;;;;;;5071065;28;20065;-91
2021/04/04 09:52:24;;;;;;;5.07;2.38;;;7.80;96.40;;;;;;5063104;28;20499;-90
2021/04/04 09:55:11;;;;;;;3.80;2.20;;;7.80;96.30;;;;;;5075688;28;20039;-90
2021/04/04 09:57:45;;;;;;;4.28;2.13;;;7.90;96.30;;;;;;5075671;28;20097;-88
2021/04/04 10:00:37;;;;;;;3.65;1.90;;;7.90;96.70;;;;;;5074047;28;20469;-89
2021/04/04 10:03:12;;;;;;;3.63;1.85;;;8.00;96.40;;;;;;5064681;28;20043;-89
2021/04/04 10:05:41;;;;;;;4.32;1.77;;;8.00;96.50;;;;;;5075063;28;20032;-88
2021/04/04 10:08:17;;;;;;;3.17;2.05;;;8.00;96.10;;;;;;5075728;28;20103;-88
2021/04/04 10:10:51;;;;;;;4.35;1.58;;;8.00;96.10;;;;;;5075763;28;20028;-90
2021/04/04 10:13:18;;;;;;;4.60;1.70;;;8.20;96.10;;;;;;5075435;28;20020;-90
2021/04/04 10:15:47;;;;;;;4.65;2.33;;;8.20;95.80;;;;;;5074971;28;20054;-89
2021/04/04 10:18:15;;;;;;;2.90;1.50;;;8.30;95.70;;;;;;5075783;28;20081;-88
2021/04/04 10:20:40;;;;;;;3.83;1.30;;;8.20;95.80;;;;;;5059931;28;20020;-90
2021/04/04 10:23:07;;;;;;;5.28;2.10;;;8.30;95.60;;;;;;5093203;28;20086;-89
2021/04/04 10:25:34;;;;;;;3.33;1.45;;;8.30;95.50;;;;;;5074911;28;20038;-87
2021/04/04 10:28:02;;;;;;;4.05;1.75;;;8.40;95.10;;;;;;5074258;28;20039;-87
2021/04/04 10:30:30;;;;;;;3.95;1.60;;;8.40;95.00;;;;;;5074864;28;20474;-89
2021/04/04 10:32:56;;;;;;;4.00;1.80;;;8.60;95.10;;;;;;5073988;28;20065;-86
2021/04/04 10:35:32;;;;;;;2.97;1.45;;;8.60;95.00;;;;;;5074135;28;20390;-90
2021/04/04 10:38:06;;;;;;;4.97;1.70;;;8.70;95.20;;;;;;5056810;28;20070;-89
2021/04/04 10:40:40;;;;;;;3.60;1.40;;;8.80;95.30;;;;;;5075557;28;20393;-88
2021/04/04 10:43:07;;;;;;;3.25;1.80;;;8.70;95.30;;;;;;5075367;28;20027;-89
2021/04/04 10:45:34;;;;;;;3.45;1.60;;;8.70;95.20;;;;;;5074940;28;20056;-90
2021/04/04 10:48:07;;;;;;;4.75;2.00;;;8.70;95.20;;;;;;5076062;28;20024;-91
2021/04/04 10:50:34;;;;;;;4.38;1.70;;;8.70;95.20;;;;;;5075946;28;20035;-91
2021/04/04 10:53:00;;;;;;;3.97;1.70;;;8.80;95.20;;;;;;5075752;28;20020;-88
2021/04/04 10:55:26;;;;;;;5.28;1.90;;;8.90;94.90;;;;;;5073163;28;20727;-88
2021/04/04 10:57:55;;;;;;;4.43;1.52;;;8.90;94.70;;;;;;5091564;28;20035;-88
2021/04/04 11:00:21;;;;;;;3.97;1.73;;;8.90;94.70;;;;;;5091273;28;20027;-88
2021/04/04 11:02:48;;;;;;;7.10;2.60;;;8.90;94.70;;;;;;5074839;28;20043;-90
2021/04/04 11:05:16;;;;;;;5.20;2.17;;;9.00;94.60;;;;;;5065477;28;20028;-89
2021/04/04 11:07:42;;;;;;;6.05;2.20;;;9.00;94.80;;;;;;5074061;28;20028;-87
2021/04/04 11:10:09;;;;;;;7.97;2.50;;;8.90;94.50;;;;;;5074398;28;20028;-88
2021/04/04 11:12:37;;;;;;;5.85;2.33;;;8.90;94.60;;;;;;5072302;28;20012;-91
2021/04/04 11:15:05;;;;;;;6.57;2.38;;;8.90;94.70;;;;;;5073228;28;20064;-89
2021/04/04 11:17:34;;;;;;;6.05;2.30;;;8.90;94.50;;;;;;5091440;28;20036;-87
2021/04/04 11:20:04;;;;;;;4.45;1.80;;;9.00;94.60;;;;;;5070926;28;20105;-90
2021/04/04 11:22:30;;;;;;;4.72;1.95;;;9.00;94.80;;;;;;5076301;28;20055;-89
2021/04/04 11:24:56;;;;;;;5.10;2.45;;;9.00;94.70;;;;;;5075091;28;20131;-91
2021/04/04 11:27:46;;;;;;;5.82;2.60;;;9.10;94.90;;;;;;5074911;28;20032;-89
2021/04/04 11:30:14;;;;;;;6.30;2.30;;;9.00;94.50;;;;;;5076483;28;20433;-90
2021/04/04 11:32:45;;;;;;;5.82;1.98;;;9.00;94.60;;;;;;5072290;28;20070;-89
2021/04/04 11:35:14;;;;;;;5.50;2.33;;;9.00;94.60;;;;;;5078535;28;20546;-89
2021/04/04 11:37:41;;;;;;;7.63;2.50;;;9.00;94.90;;;;;;5068404;28;20054;-90
2021/04/04 11:40:15;;;;;;;6.70;3.30;;;9.00;94.80;;;;;;5080986;28;20083;-91
2021/04/04 11:42:42;;;;;;;6.75;2.85;;;8.90;94.40;;;;;;5076932;28;20032;-88
2021/04/04 11:45:08;;;;;;;6.30;2.72;;;8.90;94.50;;;;;;5077387;28;20020;-89
2021/04/04 11:47:34;;;;;;;7.72;3.05;;;9.00;94.40;;;;;;5095751;28;20028;-87
2021/04/04 11:50:00;;;;;;;9.27;3.30;;;9.10;94.20;;;;;;5077598;28;20027;-89
2021/04/04 11:52:25;;;;;;;8.23;3.17;;;9.00;93.70;;;;;;5078036;28;20035;-92
2021/04/04 11:54:53;;;;;;;10.07;3.45;;;9.10;94.00;;;;;;5078436;28;20040;-86
2021/04/04 11:57:34;;;;;;;9.25;3.00;;;9.10;94.10;;;;;;5077052;28;20020;-86
2021/04/04 12:00:12;;;;;;;6.82;3.13;;;9.20;94.10;;;;;;5079995;28;20470;-87
2021/04/04 12:02:45;;;;;;;8.45;3.00;;;9.30;93.80;;;;;;5081275;28;20024;-90
2021/04/04 12:05:15;;;;;;;6.38;2.72;;;9.50;93.60;;;;;;5077758;28;20028;-88
2021/04/04 12:07:45;;;;;;;7.28;2.80;;;9.60;93.60;;;;;;5078256;28;20028;-91
2021/04/04 12:10:12;;;;;;;6.72;2.40;;;9.70;93.90;;;;;;5078608;28;20131;-90
2021/04/04 12:12:38;;;;;;;8.23;2.70;;;9.80;93.90;;;;;;5079142;28;20021;-90
2021/04/04 12:15:05;;;;;;;7.93;3.58;;;9.80;93.50;;;;;;5077408;28;20047;-90
2021/04/04 12:17:32;;;;;;;9.98;3.22;;;9.90;93.40;;;;;;5076445;28;20597;-89
2021/04/04 12:19:59;;;;;;;7.68;3.17;;;9.80;92.90;;;;;;5076532;28;20477;-89
2021/04/04 12:22:38;;;;;;;8.07;3.30;;;9.90;93.10;;;;;;5076191;28;20028;-90
2021/04/04 12:25:12;;;;;;;6.32;3.20;;;10.00;92.90;;;;;;5076182;28;20036;-89
2021/04/04 12:27:40;;;;;;;10.23;4.57;;;10.10;93.10;;;;;;5076649;28;20027;-91
2021/04/04 12:30:14;;;;;;;8.60;3.78;;;10.00;92.30;;;;;;5076383;28;20366;-90
2021/04/04 12:32:40;;;;;;;9.10;3.72;;;9.90;92.60;;;;;;5076310;28;20107;-90
2021/04/04 12:35:07;;;;;;;9.13;3.90;;;9.80;92.50;;;;;;5076013;28;20012;-90
2021/04/04 12:37:36;;;;;;;9.07;3.40;;;9.90;92.90;;;;;;5076735;28;20205;-89
2021/04/04 12:40:04;;;;;;;6.40;2.97;;;9.90;92.90;;;;;;5076510;28;20040;-88
2021/04/04 12:42:32;;;;;;;9.23;3.33;;;10.20;93.00;;;;;;5077374;28;20090;-89
2021/04/04 12:45:02;;;;;;;10.05;3.80;;;10.40;93.10;;;;;;5081593;28;20481;-89
2021/04/04 12:47:28;;;;;;;9.55;3.40;;;10.40;92.90;;;;;;5076542;28;20020;-89
2021/04/04 12:49:57;;;;;;;12.52;3.50;;;10.30;92.90;;;;;;5072815;28;20360;-88
2021/04/04 12:52:38;;;;;;;9.25;3.40;;;10.30;92.70;;;;;;5072706;28;20037;-86
2021/04/04 12:55:14;;;;;;;11.43;4.05;;;10.20;92.60;;;;;;5074781;28;20040;-88
2021/04/04 12:57:40;;;;;;;10.95;4.15;;;10.10;92.70;;;;;;5073718;28;20016;-88
2021/04/04 13:00:32;;;;;;;9.85;3.67;;;10.00;92.60;;;;;;5074212;28;20032;-89
2021/04/04 13:03:08;;;;;;;7.38;3.20;;;10.00;92.90;;;;;;5074521;28;20043;-89
2021/04/04 13:05:39;;;;;;;7.85;3.00;;;10.10;93.40;;;;;;5063229;28;20126;-90
2021/04/04 13:08:28;;;;;;;7.00;3.30;;;10.30;93.40;;;;;;5067966;28;20090;-91
2021/04/04 13:11:09;;;;;;;9.82;3.53;;;10.30;92.90;;;;;;5070899;28;20508;-91
2021/04/04 13:13:40;;;;;;;8.07;3.65;;;10.40;93.20;;;;;;5049524;28;20033;-90
2021/04/04 13:16:07;;;;;;;6.60;3.47;;;10.50;93.20;;;;;;5061684;28;20437;-91
2021/04/04 13:18:41;;;;;;;9.27;4.03;;;10.50;92.80;;;;;;5064826;28;20047;-84
2021/04/04 13:21:13;;;;;;;7.47;3.55;;;10.50;92.60;;;;;;5067518;28;20122;-85
2021/04/04 13:23:41;;;;;;;8.70;4.07;;;10.40;92.30;;;;;;5069331;28;20047;-91
2021/04/04 13:26:18;;;;;;;7.90;3.90;;;10.40;92.40;;;;;;5067270;28;20196;-88
2021/04/04 13:28:43;;;;;;;6.85;3.85;;;10.30;92.70;;;;;;5063816;28;20032;-88
2021/04/04 13:31:23;;;;;;;10.52;3.65;;;10.50;92.70;;;;;;5065071;28;20024;-88
2021/04/04 13:34:08;;;;;;;11.95;4.55;;;10.70;92.70;;;;;;5075911;28;20024;-88
2021/04/04 13:36:54;;;;;;;9.18;4.28;;;10.60;91.70;;;;;;5066274;28;20056;-88
2021/04/04 13:39:38;;;;;;;10.55;3.75;;;10.60;92.10;;;;;;5070099;28;20020;-88
2021/04/04 13:42:07;;;;;;;13.13;4.40;;;10.70;92.40;;;;;;5061467;28;20036;-88